sensor_id;sensor_type;location;lat;lon;timestamp;pressure;altitude;pressure_sealevel;temperature
45393;BMP280;31129;44.810;10.334;2024-03-25T00:00:12;76590.75;;;11.12
45393;BMP280;31129;44.810;10.334;2024-03-25T00:02:39;76596.19;;;11.15
45393;BMP280;31129;44.810;10.334;2024-03-25T00:05:09;76570.56;;;10.98
45393;BMP280;31129;44.810;10.334;2024-03-25T00:07:35;76569.88;;;10.88
45393;BMP280;31129;44.810;10.334;2024-03-25T00:10:01;76528.94;;;10.57
45393;BMP280;31129;44.810;10.334;2024-03-25T00:12:27;76539.81;;;10.65
45393;BMP280;31129;44.810;10.334;2024-03-25T00:14:53;76549.16;;;10.74
45393;BMP280;31129;44.810;10.334;2024-03-25T00:17:18;76534.34;;;10.57
45393;BMP280;31129;44.810;10.334;2024-03-25T00:19:46;76539.81;;;10.65
45393;BMP280;31129;44.810;10.334;2024-03-25T00:22:20;76512.44;;;10.40
45393;BMP280;31129;44.810;10.334;2024-03-25T00:24:46;76521.81;;;10.53
45393;BMP280;31129;44.810;10.334;2024-03-25T00:27:12;76522.34;;;10.51
45393;BMP280;31129;44.810;10.334;2024-03-25T00:29:38;76512.00;;;10.44
45393;BMP280;31129;44.810;10.334;2024-03-25T00:32:04;76519.00;;;10.43
45393;BMP280;31129;44.810;10.334;2024-03-25T00:34:34;76511.34;;;10.39
45393;BMP280;31129;44.810;10.334;2024-03-25T00:37:00;76496.09;;;10.27
45393;BMP280;31129;44.810;10.334;2024-03-25T00:39:26;76513.56;;;10.41
45393;BMP280;31129;44.810;10.334;2024-03-25T00:41:52;76487.28;;;10.16
45393;BMP280;31129;44.810;10.334;2024-03-25T00:44:18;76491.09;;;10.20
45393;BMP280;31129;44.810;10.334;2024-03-25T00:46:43;76490.06;;;10.24
45393;BMP280;31129;44.810;10.334;2024-03-25T00:49:10;76494.94;;;10.23
45393;BMP280;31129;44.810;10.334;2024-03-25T00:51:36;76478.50;;;10.08
45393;BMP280;31129;44.810;10.334;2024-03-25T00:54:02;76486.75;;;10.16
45393;BMP280;31129;44.810;10.334;2024-03-25T00:56:29;76491.09;;;10.20
45393;BMP280;31129;44.810;10.334;2024-03-25T00:58:55;76500.41;;;10.28
45393;BMP280;31129;44.810;10.334;2024-03-25T01:01:22;76488.44;;;10.22
45393;BMP280;31129;44.810;10.334;2024-03-25T01:03:48;76495.47;;;10.24
45393;BMP280;31129;44.810;10.334;2024-03-25T01:06:14;76496.09;;;10.27
45393;BMP280;31129;44.810;10.334;2024-03-25T01:08:39;76493.81;;;10.20
45393;BMP280;31129;44.810;10.334;2024-03-25T01:11:05;76509.09;;;10.31
45393;BMP280;31129;44.810;10.334;2024-03-25T01:13:31;76489.47;;;10.18
45393;BMP280;31129;44.810;10.334;2024-03-25T01:16:00;76488.38;;;10.17
45393;BMP280;31129;44.810;10.334;2024-03-25T01:18:25;76479.66;;;10.12
45393;BMP280;31129;44.810;10.334;2024-03-25T01:20:51;76486.19;;;10.15
45393;BMP280;31129;44.810;10.334;2024-03-25T01:23:16;76477.41;;;10.07
45393;BMP280;31129;44.810;10.334;2024-03-25T01:25:42;76480.19;;;10.10
45393;BMP280;31129;44.810;10.334;2024-03-25T01:28:07;76487.31;;;10.19
45393;BMP280;31129;44.810;10.334;2024-03-25T01:30:33;76483.44;;;10.10
45393;BMP280;31129;44.810;10.334;2024-03-25T01:33:01;76492.22;;;10.23
45393;BMP280;31129;44.810;10.334;2024-03-25T01:35:27;76475.22;;;10.05
45393;BMP280;31129;44.810;10.334;2024-03-25T01:37:55;76486.16;;;10.13
45393;BMP280;31129;44.810;10.334;2024-03-25T01:40:23;76477.47;;;10.10
45393;BMP280;31129;44.810;10.334;2024-03-25T01:42:59;76487.81;;;10.17
45393;BMP280;31129;44.810;10.334;2024-03-25T01:45:26;76479.09;;;10.11
45393;BMP280;31129;44.810;10.334;2024-03-25T01:47:52;76490.03;;;10.19
45393;BMP280;31129;44.810;10.334;2024-03-25T01:50:20;76473.53;;;9.98
45393;BMP280;31129;44.810;10.334;2024-03-25T01:52:46;76485.09;;;10.14
45393;BMP280;31129;44.810;10.334;2024-03-25T01:55:18;76499.88;;;10.28
45393;BMP280;31129;44.810;10.334;2024-03-25T01:57:46;76504.84;;;10.35
45393;BMP280;31129;44.810;10.334;2024-03-25T02:00:13;76490.00;;;10.16
45393;BMP280;31129;44.810;10.334;2024-03-25T02:02:49;76490.63;;;10.24
45393;BMP280;31129;44.810;10.334;2024-03-25T02:05:15;76472.50;;;10.03
45393;BMP280;31129;44.810;10.334;2024-03-25T02:07:40;76484.03;;;10.16
45393;BMP280;31129;44.810;10.334;2024-03-25T02:10:07;76472.00;;;10.07
45393;BMP280;31129;44.810;10.334;2024-03-25T02:12:38;76486.78;;;10.21
45393;BMP280;31129;44.810;10.334;2024-03-25T02:15:08;76510.81;;;10.38
45393;BMP280;31129;44.810;10.334;2024-03-25T02:17:34;76498.25;;;10.26
45393;BMP280;31129;44.810;10.334;2024-03-25T02:20:00;76513.00;;;10.40
45393;BMP280;31129;44.810;10.334;2024-03-25T02:22:25;76510.34;;;10.43
45393;BMP280;31129;44.810;10.334;2024-03-25T02:24:53;76502.63;;;10.33
45393;BMP280;31129;44.810;10.334;2024-03-25T02:27:18;76510.84;;;10.41
45393;BMP280;31129;44.810;10.334;2024-03-25T02:29:44;76495.56;;;10.29
45393;BMP280;31129;44.810;10.334;2024-03-25T02:32:11;76488.97;;;10.23
45393;BMP280;31129;44.810;10.334;2024-03-25T02:34:37;76486.78;;;10.18
45393;BMP280;31129;44.810;10.334;2024-03-25T02:37:04;76487.25;;;10.14
45393;BMP280;31129;44.810;10.334;2024-03-25T02:39:29;76486.69;;;10.13
45393;BMP280;31129;44.810;10.334;2024-03-25T02:41:56;76476.38;;;10.09
45393;BMP280;31129;44.810;10.334;2024-03-25T02:44:23;76479.69;;;10.14
45393;BMP280;31129;44.810;10.334;2024-03-25T02:46:48;76451.25;;;9.90
45393;BMP280;31129;44.810;10.334;2024-03-25T02:49:14;76439.72;;;9.77
45393;BMP280;31129;44.810;10.334;2024-03-25T02:51:40;76445.72;;;9.80
45393;BMP280;31129;44.810;10.334;2024-03-25T02:54:08;76443.03;;;9.80
45393;BMP280;31129;44.810;10.334;2024-03-25T02:56:34;76424.91;;;9.61
45393;BMP280;31129;44.810;10.334;2024-03-25T02:59:00;76429.88;;;9.68
45393;BMP280;31129;44.810;10.334;2024-03-25T03:01:26;76418.34;;;9.55
45393;BMP280;31129;44.810;10.334;2024-03-25T03:03:52;76427.09;;;9.63
45393;BMP280;31129;44.810;10.334;2024-03-25T03:06:17;76438.06;;;9.73
45393;BMP280;31129;44.810;10.334;2024-03-25T03:08:44;76433.69;;;9.69
45393;BMP280;31129;44.810;10.334;2024-03-25T03:11:10;76427.09;;;9.63
45393;BMP280;31129;44.810;10.334;2024-03-25T03:13:38;76434.75;;;9.70
45393;BMP280;31129;44.810;10.334;2024-03-25T03:16:03;76404.13;;;9.42
45393;BMP280;31129;44.810;10.334;2024-03-25T03:18:30;76436.97;;;9.72
45393;BMP280;31129;44.810;10.334;2024-03-25T03:20:55;76451.13;;;9.80
45393;BMP280;31129;44.810;10.334;2024-03-25T03:23:22;76417.25;;;9.54
45393;BMP280;31129;44.810;10.334;2024-03-25T03:25:47;76412.84;;;9.47
45393;BMP280;31129;44.810;10.334;2024-03-25T03:28:13;76401.91;;;9.37
45393;BMP280;31129;44.810;10.334;2024-03-25T03:30:40;76382.28;;;9.24
45393;BMP280;31129;44.810;10.334;2024-03-25T03:33:06;76400.31;;;9.41
45393;BMP280;31129;44.810;10.334;2024-03-25T03:35:34;76394.31;;;9.35
45393;BMP280;31129;44.810;10.334;2024-03-25T03:38:00;76391.53;;;9.30
45393;BMP280;31129;44.810;10.334;2024-03-25T03:40:25;76383.31;;;9.20
45393;BMP280;31129;44.810;10.334;2024-03-25T03:42:51;76377.38;;;9.19
45393;BMP280;31129;44.810;10.334;2024-03-25T03:45:16;76380.66;;;9.25
45393;BMP280;31129;44.810;10.334;2024-03-25T03:47:42;76386.63;;;9.25
45393;BMP280;31129;44.810;10.334;2024-03-25T03:50:07;76392.59;;;9.28
45393;BMP280;31129;44.810;10.334;2024-03-25T03:52:33;76376.28;;;9.18
45393;BMP280;31129;44.810;10.334;2024-03-25T03:54:58;76374.59;;;9.17
45393;BMP280;31129;44.810;10.334;2024-03-25T03:57:25;76377.94;;;9.22
45393;BMP280;31129;44.810;10.334;2024-03-25T03:59:51;76376.16;;;9.13
45393;BMP280;31129;44.810;10.334;2024-03-25T04:02:20;76395.31;;;9.31
45393;BMP280;31129;44.810;10.334;2024-03-25T04:04:46;76393.16;;;9.29
45393;BMP280;31129;44.810;10.334;2024-03-25T04:07:11;76377.38;;;9.19
45393;BMP280;31129;44.810;10.334;2024-03-25T04:09:36;76359.34;;;9.05
45393;BMP280;31129;44.810;10.334;2024-03-25T04:12:02;76360.91;;;9.02
45393;BMP280;31129;44.810;10.334;2024-03-25T04:14:27;76358.19;;;9.02
45393;BMP280;31129;44.810;10.334;2024-03-25T04:16:53;76366.41;;;9.09
45393;BMP280;31129;44.810;10.334;2024-03-25T04:19:19;76388.84;;;9.30
45393;BMP280;31129;44.810;10.334;2024-03-25T04:21:45;76387.75;;;9.29
45393;BMP280;31129;44.810;10.334;2024-03-25T04:24:11;76387.16;;;9.26
45393;BMP280;31129;44.810;10.334;2024-03-25T04:26:37;76387.19;;;9.28
45393;BMP280;31129;44.810;10.334;2024-03-25T04:29:02;76385.56;;;9.27
45393;BMP280;31129;44.810;10.334;2024-03-25T04:31:28;76374.56;;;9.14
45393;BMP280;31129;44.810;10.334;2024-03-25T04:33:53;76373.50;;;9.16
45393;BMP280;31129;44.810;10.334;2024-03-25T04:36:21;76362.03;;;9.05
45393;BMP280;31129;44.810;10.334;2024-03-25T04:38:47;76351.09;;;8.95
45393;BMP280;31129;44.810;10.334;2024-03-25T04:41:12;76353.22;;;8.92
45393;BMP280;31129;44.810;10.334;2024-03-25T04:43:38;76341.72;;;8.84
45393;BMP280;31129;44.810;10.334;2024-03-25T04:46:03;76345.66;;;8.92
45393;BMP280;31129;44.810;10.334;2024-03-25T04:48:29;76351.63;;;8.95
45393;BMP280;31129;44.810;10.334;2024-03-25T04:50:56;76352.13;;;8.93
45393;BMP280;31129;44.810;10.334;2024-03-25T04:53:25;76349.97;;;8.94
45393;BMP280;31129;44.810;10.334;2024-03-25T04:55:51;76345.13;;;8.92
45393;BMP280;31129;44.810;10.334;2024-03-25T04:58:16;76346.69;;;8.88
45393;BMP280;31129;44.810;10.334;2024-03-25T05:00:41;76340.56;;;8.78
45393;BMP280;31129;44.810;10.334;2024-03-25T05:03:07;76336.88;;;8.84
45393;BMP280;31129;44.810;10.334;2024-03-25T05:05:33;76328.09;;;8.74
45393;BMP280;31129;44.810;10.334;2024-03-25T05:07:59;76321.00;;;8.67
45393;BMP280;31129;44.810;10.334;2024-03-25T05:10:24;76324.81;;;8.71
45393;BMP280;31129;44.810;10.334;2024-03-25T05:12:50;76321.03;;;8.70
45393;BMP280;31129;44.810;10.334;2024-03-25T05:15:15;76308.41;;;8.55
45393;BMP280;31129;44.810;10.334;2024-03-25T05:17:41;76316.66;;;8.66
45393;BMP280;31129;44.810;10.334;2024-03-25T05:20:07;76317.69;;;8.62
45393;BMP280;31129;44.810;10.334;2024-03-25T05:22:33;76304.56;;;8.49
45393;BMP280;31129;44.810;10.334;2024-03-25T05:24:59;76305.66;;;8.50
45393;BMP280;31129;44.810;10.334;2024-03-25T05:27:24;76320.47;;;8.69
45393;BMP280;31129;44.810;10.334;2024-03-25T05:29:50;76325.34;;;8.69
45393;BMP280;31129;44.810;10.334;2024-03-25T05:32:15;76333.59;;;8.79
45393;BMP280;31129;44.810;10.334;2024-03-25T05:34:42;76338.50;;;8.83
45393;BMP280;31129;44.810;10.334;2024-03-25T05:37:08;76318.81;;;8.65
45393;BMP280;31129;44.810;10.334;2024-03-25T05:39:33;76334.13;;;8.79
45393;BMP280;31129;44.810;10.334;2024-03-25T05:41:58;76326.44;;;8.70
45393;BMP280;31129;44.810;10.334;2024-03-25T05:44:24;76328.63;;;8.72
45393;BMP280;31129;44.810;10.334;2024-03-25T05:46:49;76332.44;;;8.73
45393;BMP280;31129;44.810;10.334;2024-03-25T05:49:15;76331.41;;;8.77
45393;BMP280;31129;44.810;10.334;2024-03-25T05:51:40;76341.19;;;8.83
45393;BMP280;31129;44.810;10.334;2024-03-25T05:54:05;76346.63;;;8.86
45393;BMP280;31129;44.810;10.334;2024-03-25T05:56:31;76347.16;;;8.86
45393;BMP280;31129;44.810;10.334;2024-03-25T05:59:00;76339.59;;;8.84
45393;BMP280;31129;44.810;10.334;2024-03-25T06:01:25;76334.13;;;8.79
45393;BMP280;31129;44.810;10.334;2024-03-25T06:03:51;76337.34;;;8.77
45393;BMP280;31129;44.810;10.334;2024-03-25T06:06:17;76317.41;;;8.79
45393;BMP280;31129;44.810;10.334;2024-03-25T06:08:43;76336.28;;;8.79
45393;BMP280;31129;44.810;10.334;2024-03-25T06:11:08;76320.41;;;8.64
45393;BMP280;31129;44.810;10.334;2024-03-25T06:13:34;76318.28;;;8.67
45393;BMP280;31129;44.810;10.334;2024-03-25T06:15:59;76336.88;;;8.82
45393;BMP280;31129;44.810;10.334;2024-03-25T06:18:25;76319.44;;;8.71
45393;BMP280;31129;44.810;10.334;2024-03-25T06:20:50;76334.13;;;8.79
45393;BMP280;31129;44.810;10.334;2024-03-25T06:23:26;76344.47;;;8.86
45393;BMP280;31129;44.810;10.334;2024-03-25T06:25:52;76351.09;;;8.95
45393;BMP280;31129;44.810;10.334;2024-03-25T06:28:19;76356.00;;;9.00
45393;BMP280;31129;44.810;10.334;2024-03-25T06:30:48;76363.09;;;9.04
45393;BMP280;31129;44.810;10.334;2024-03-25T06:33:32;76371.84;;;9.12
45393;BMP280;31129;44.810;10.334;2024-03-25T06:36:20;76392.63;;;9.31
45393;BMP280;31129;44.810;10.334;2024-03-25T06:38:48;76405.16;;;9.40
45393;BMP280;31129;44.810;10.334;2024-03-25T06:41:14;76410.69;;;9.48
45393;BMP280;31129;44.810;10.334;2024-03-25T06:43:40;76394.31;;;9.35
45393;BMP280;31129;44.810;10.334;2024-03-25T06:46:06;76410.69;;;9.48
45393;BMP280;31129;44.810;10.334;2024-03-25T06:48:32;76405.78;;;9.46
45393;BMP280;31129;44.810;10.334;2024-03-25T06:51:00;76425.41;;;9.59
45393;BMP280;31129;44.810;10.334;2024-03-25T06:53:25;76430.97;;;9.69
45393;BMP280;31129;44.810;10.334;2024-03-25T06:55:55;76421.13;;;9.60
45393;BMP280;31129;44.810;10.334;2024-03-25T06:58:22;76435.34;;;9.73
45393;BMP280;31129;44.810;10.334;2024-03-25T07:00:48;76424.41;;;9.63
45393;BMP280;31129;44.810;10.334;2024-03-25T07:03:17;76446.84;;;9.84
45393;BMP280;31129;44.810;10.334;2024-03-25T07:05:51;76471.47;;;10.07
45393;BMP280;31129;44.810;10.334;2024-03-25T07:08:20;76476.94;;;10.12
45393;BMP280;31129;44.810;10.334;2024-03-25T07:10:46;76505.34;;;10.33
45393;BMP280;31129;44.810;10.334;2024-03-25T07:13:12;76486.78;;;10.21
45393;BMP280;31129;44.810;10.334;2024-03-25T07:15:38;76497.69;;;10.26
45393;BMP280;31129;44.810;10.334;2024-03-25T07:18:04;76495.00;;;10.26
45393;BMP280;31129;44.810;10.334;2024-03-25T07:20:30;76513.06;;;10.43
45393;BMP280;31129;44.810;10.334;2024-03-25T07:22:56;76520.69;;;10.50
45393;BMP280;31129;44.810;10.334;2024-03-25T07:25:22;76511.47;;;10.46
45393;BMP280;31129;44.810;10.334;2024-03-25T07:27:48;76522.34;;;10.51
45393;BMP280;31129;44.810;10.334;2024-03-25T07:30:14;76530.56;;;10.59
45393;BMP280;31129;44.810;10.334;2024-03-25T07:32:40;76525.13;;;10.56
45393;BMP280;31129;44.810;10.334;2024-03-25T07:35:05;76544.25;;;10.72
45393;BMP280;31129;44.810;10.334;2024-03-25T07:37:33;76519.09;;;10.51
45393;BMP280;31129;44.810;10.334;2024-03-25T07:39:58;76513.06;;;10.43
45393;BMP280;31129;44.810;10.334;2024-03-25T07:42:24;76525.06;;;10.54
45393;BMP280;31129;44.810;10.334;2024-03-25T07:44:49;76539.38;;;10.72
45393;BMP280;31129;44.810;10.334;2024-03-25T07:47:15;76553.56;;;10.83
45393;BMP280;31129;44.810;10.334;2024-03-25T07:49:40;76574.91;;;11.00
45393;BMP280;31129;44.810;10.334;2024-03-25T07:52:07;76568.31;;;10.91
45393;BMP280;31129;44.810;10.334;2024-03-25T07:54:32;76568.34;;;10.96
45393;BMP280;31129;44.810;10.334;2024-03-25T07:56:58;76582.03;;;11.09
45393;BMP280;31129;44.810;10.334;2024-03-25T07:59:23;76591.34;;;11.18
45393;BMP280;31129;44.810;10.334;2024-03-25T08:01:49;76606.72;;;11.32
45393;BMP280;31129;44.810;10.334;2024-03-25T08:04:14;76611.63;;;11.36
45393;BMP280;31129;44.810;10.334;2024-03-25T08:06:40;76604.50;;;11.30
45393;BMP280;31129;44.810;10.334;2024-03-25T08:09:05;76602.31;;;11.28
45393;BMP280;31129;44.810;10.334;2024-03-25T08:11:31;76606.09;;;11.29
45393;BMP280;31129;44.810;10.334;2024-03-25T08:13:57;76606.06;;;11.26
45393;BMP280;31129;44.810;10.334;2024-03-25T08:16:22;76610.53;;;11.35
45393;BMP280;31129;44.810;10.334;2024-03-25T08:18:48;76621.44;;;11.43
45393;BMP280;31129;44.810;10.334;2024-03-25T08:21:13;76623.66;;;11.48
45393;BMP280;31129;44.810;10.334;2024-03-25T08:23:39;76626.94;;;11.51
45393;BMP280;31129;44.810;10.334;2024-03-25T08:26:08;76646.63;;;11.66
45393;BMP280;31129;44.810;10.334;2024-03-25T08:28:34;76646.59;;;11.64
45393;BMP280;31129;44.810;10.334;2024-03-25T08:31:00;76659.25;;;11.81
45393;BMP280;31129;44.810;10.334;2024-03-25T08:33:25;76659.75;;;11.76
45393;BMP280;31129;44.810;10.334;2024-03-25T08:35:50;76683.84;;;11.98
45393;BMP280;31129;44.810;10.334;2024-03-25T08:38:16;76677.88;;;11.98
45393;BMP280;31129;44.810;10.334;2024-03-25T08:40:41;76704.69;;;12.23
45393;BMP280;31129;44.810;10.334;2024-03-25T08:43:07;76705.25;;;12.23
45393;BMP280;31129;44.810;10.334;2024-03-25T08:45:32;76695.41;;;12.17
45393;BMP280;31129;44.810;10.334;2024-03-25T08:47:58;76725.00;;;12.44
45393;BMP280;31129;44.810;10.334;2024-03-25T08:50:23;76737.53;;;12.51
45393;BMP280;31129;44.810;10.334;2024-03-25T08:52:49;76740.22;;;12.48
45393;BMP280;31129;44.810;10.334;2024-03-25T08:55:14;76732.63;;;12.46
45393;BMP280;31129;44.810;10.334;2024-03-25T08:57:42;76734.81;;;12.51
45393;BMP280;31129;44.810;10.334;2024-03-25T09:00:08;76751.22;;;12.63
45393;BMP280;31129;44.810;10.334;2024-03-25T09:02:36;76749.06;;;12.64
45393;BMP280;31129;44.810;10.334;2024-03-25T09:05:02;76746.38;;;12.66
45393;BMP280;31129;44.810;10.334;2024-03-25T09:07:31;76760.59;;;12.74
45393;BMP280;31129;44.810;10.334;2024-03-25T09:09:56;76764.97;;;12.81
45393;BMP280;31129;44.810;10.334;2024-03-25T09:12:40;76786.28;;;12.93
45393;BMP280;31129;44.810;10.334;2024-03-25T09:15:06;76790.13;;;12.99
45393;BMP280;31129;44.810;10.334;2024-03-25T09:17:32;76794.53;;;13.06
45393;BMP280;31129;44.810;10.334;2024-03-25T09:20:00;76809.88;;;13.20
45393;BMP280;31129;44.810;10.334;2024-03-25T09:22:25;76804.91;;;13.13
45393;BMP280;31129;44.810;10.334;2024-03-25T09:24:50;76818.59;;;13.23
45393;BMP280;31129;44.810;10.334;2024-03-25T09:27:16;76837.78;;;13.41
45393;BMP280;31129;44.810;10.334;2024-03-25T09:29:42;76824.69;;;13.36
45393;BMP280;31129;44.810;10.334;2024-03-25T09:32:07;76829.56;;;13.33
45393;BMP280;31129;44.810;10.334;2024-03-25T09:34:33;76848.75;;;13.51
45393;BMP280;31129;44.810;10.334;2024-03-25T09:36:58;76852.03;;;13.54
45393;BMP280;31129;44.810;10.334;2024-03-25T09:39:24;76854.22;;;13.59
45393;BMP280;31129;44.810;10.334;2024-03-25T09:41:50;76876.16;;;13.76
45393;BMP280;31129;44.810;10.334;2024-03-25T09:44:22;76887.63;;;13.87
45393;BMP280;31129;44.810;10.334;2024-03-25T09:46:50;76885.47;;;13.87
45393;BMP280;31129;44.810;10.334;2024-03-25T09:49:17;76899.16;;;14.00
45393;BMP280;31129;44.810;10.334;2024-03-25T09:51:43;76901.91;;;14.03
45393;BMP280;31129;44.810;10.334;2024-03-25T09:54:09;76908.50;;;14.09
45393;BMP280;31129;44.810;10.334;2024-03-25T09:56:36;76910.69;;;14.13
45393;BMP280;31129;44.810;10.334;2024-03-25T09:59:02;76917.25;;;14.14
45393;BMP280;31129;44.810;10.334;2024-03-25T10:01:28;76932.59;;;14.28
45393;BMP280;31129;44.810;10.334;2024-03-25T10:03:54;76934.22;;;14.30
45393;BMP280;31129;44.810;10.334;2024-03-25T10:06:19;76940.78;;;14.36
45393;BMP280;31129;44.810;10.334;2024-03-25T10:08:45;76950.16;;;14.50
45393;BMP280;31129;44.810;10.334;2024-03-25T10:11:10;76973.16;;;14.69
45393;BMP280;31129;44.810;10.334;2024-03-25T10:13:36;76979.16;;;14.72
45393;BMP280;31129;44.810;10.334;2024-03-25T10:16:02;76952.88;;;14.50
45393;BMP280;31129;44.810;10.334;2024-03-25T10:18:31;76950.16;;;14.50
45393;BMP280;31129;44.810;10.334;2024-03-25T10:20:57;76949.06;;;14.46
45393;BMP280;31129;44.810;10.334;2024-03-25T10:23:23;76972.03;;;14.65
45393;BMP280;31129;44.810;10.334;2024-03-25T10:25:52;76981.38;;;14.74
45393;BMP280;31129;44.810;10.334;2024-03-25T10:28:18;76996.19;;;14.90
45393;BMP280;31129;44.810;10.334;2024-03-25T10:30:43;77011.00;;;15.09
45393;BMP280;31129;44.810;10.334;2024-03-25T10:33:08;77016.47;;;15.09
45393;BMP280;31129;44.810;10.334;2024-03-25T10:35:35;77023.06;;;15.15
45393;BMP280;31129;44.810;10.334;2024-03-25T10:38:05;77020.31;;;15.15
45393;BMP280;31129;44.810;10.334;2024-03-25T10:40:35;77025.78;;;15.17
45393;BMP280;31129;44.810;10.334;2024-03-25T10:43:09;77029.63;;;15.21
45393;BMP280;31129;44.810;10.334;2024-03-25T10:45:49;77049.91;;;15.42
45393;BMP280;31129;44.810;10.334;2024-03-25T10:48:23;77054.31;;;15.46
45393;BMP280;31129;44.810;10.334;2024-03-25T10:50:51;77079.50;;;15.64
45393;BMP280;31129;44.810;10.334;2024-03-25T10:53:18;77058.69;;;15.50
45393;BMP280;31129;44.810;10.334;2024-03-25T10:55:47;77081.72;;;15.71
45393;BMP280;31129;44.810;10.334;2024-03-25T10:58:16;77082.25;;;15.67
45393;BMP280;31129;44.810;10.334;2024-03-25T11:00:43;77067.44;;;15.58
45393;BMP280;31129;44.810;10.334;2024-03-25T11:03:10;77063.63;;;15.55
45393;BMP280;31129;44.810;10.334;2024-03-25T11:05:36;77074.03;;;15.62
45393;BMP280;31129;44.810;10.334;2024-03-25T11:08:12;77079.50;;;15.69
45393;BMP280;31129;44.810;10.334;2024-03-25T11:10:45;77077.31;;;15.62
45393;BMP280;31129;44.810;10.334;2024-03-25T11:13:17;77070.72;;;15.59
45393;BMP280;31129;44.810;10.334;2024-03-25T11:15:44;77080.03;;;15.67
45393;BMP280;31129;44.810;10.334;2024-03-25T11:18:12;77084.97;;;15.74
45393;BMP280;31129;44.810;10.334;2024-03-25T11:20:41;77105.28;;;15.93
45393;BMP280;31129;44.810;10.334;2024-03-25T11:23:11;77128.84;;;16.12
45393;BMP280;31129;44.810;10.334;2024-03-25T11:25:37;77131.56;;;16.12
45393;BMP280;31129;44.810;10.334;2024-03-25T11:28:04;77165.63;;;16.51
45393;BMP280;31129;44.810;10.334;2024-03-25T11:30:30;77190.81;;;16.70
45393;BMP280;31129;44.810;10.334;2024-03-25T11:32:57;77204.53;;;16.85
45393;BMP280;31129;44.810;10.334;2024-03-25T11:35:24;77234.69;;;17.10
45393;BMP280;31129;44.810;10.334;2024-03-25T11:37:50;77241.81;;;17.19
45393;BMP280;31129;44.810;10.334;2024-03-25T11:40:17;77231.94;;;17.08
45393;BMP280;31129;44.810;10.334;2024-03-25T11:42:43;77241.78;;;17.12
45393;BMP280;31129;44.810;10.334;2024-03-25T11:45:27;77258.28;;;17.32
45393;BMP280;31129;44.810;10.334;2024-03-25T11:47:52;77239.09;;;17.14
45393;BMP280;31129;44.810;10.334;2024-03-25T11:50:19;77234.69;;;17.10
45393;BMP280;31129;44.810;10.334;2024-03-25T11:52:45;77236.34;;;17.14
45393;BMP280;31129;44.810;10.334;2024-03-25T11:55:16;77239.63;;;17.17
45393;BMP280;31129;44.810;10.334;2024-03-25T11:57:42;77258.81;;;17.32
45393;BMP280;31129;44.810;10.334;2024-03-25T12:00:08;77261.03;;;17.37
45393;BMP280;31129;44.810;10.334;2024-03-25T12:02:44;77287.88;;;17.54
45393;BMP280;31129;44.810;10.334;2024-03-25T12:05:12;77311.47;;;17.84
45393;BMP280;31129;44.810;10.334;2024-03-25T12:07:38;77300.50;;;17.73
45393;BMP280;31129;44.810;10.334;2024-03-25T12:10:04;77302.16;;;17.72
45393;BMP280;31129;44.810;10.334;2024-03-25T12:12:48;77308.72;;;17.79
45393;BMP280;31129;44.810;10.334;2024-03-25T12:15:19;77298.84;;;17.69
45393;BMP280;31129;44.810;10.334;2024-03-25T12:17:45;77314.78;;;17.87
45393;BMP280;31129;44.810;10.334;2024-03-25T12:20:11;77308.75;;;17.76
45393;BMP280;31129;44.810;10.334;2024-03-25T12:22:37;77280.75;;;17.53
45393;BMP280;31129;44.810;10.334;2024-03-25T12:25:05;77279.13;;;17.51
45393;BMP280;31129;44.810;10.334;2024-03-25T12:27:35;77289.00;;;17.63
45393;BMP280;31129;44.810;10.334;2024-03-25T12:30:05;77315.88;;;17.85
45393;BMP280;31129;44.810;10.334;2024-03-25T12:32:36;77278.56;;;17.53
45393;BMP280;31129;44.810;10.334;2024-03-25T12:35:02;77270.88;;;17.41
45393;BMP280;31129;44.810;10.334;2024-03-25T12:37:30;77261.56;;;17.35
45393;BMP280;31129;44.810;10.334;2024-03-25T12:39:56;77272.00;;;17.47
45393;BMP280;31129;44.810;10.334;2024-03-25T12:42:24;77252.78;;;17.29
45393;BMP280;31129;44.810;10.334;2024-03-25T12:44:49;77251.16;;;17.28
45393;BMP280;31129;44.810;10.334;2024-03-25T12:47:15;77242.94;;;17.18
45393;BMP280;31129;44.810;10.334;2024-03-25T12:49:40;77286.78;;;17.56
45393;BMP280;31129;44.810;10.334;2024-03-25T12:52:09;77298.31;;;17.69
45393;BMP280;31129;44.810;10.334;2024-03-25T12:54:35;77301.59;;;17.72
45393;BMP280;31129;44.810;10.334;2024-03-25T12:57:01;77309.84;;;17.82
45393;BMP280;31129;44.810;10.334;2024-03-25T12:59:26;77310.94;;;17.83
45393;BMP280;31129;44.810;10.334;2024-03-25T13:01:53;77308.75;;;17.81
45393;BMP280;31129;44.810;10.334;2024-03-25T13:04:18;77323.00;;;17.89
45393;BMP280;31129;44.810;10.334;2024-03-25T13:06:44;77318.06;;;17.87
45393;BMP280;31129;44.810;10.334;2024-03-25T13:09:10;77321.91;;;17.96
45393;BMP280;31129;44.810;10.334;2024-03-25T13:11:36;77335.09;;;18.05
45393;BMP280;31129;44.810;10.334;2024-03-25T13:14:03;77359.75;;;18.26
45393;BMP280;31129;44.810;10.334;2024-03-25T13:16:28;77386.09;;;18.50
45393;BMP280;31129;44.810;10.334;2024-03-25T13:19:00;77354.28;;;18.23
45393;BMP280;31129;44.810;10.334;2024-03-25T13:21:25;77393.22;;;18.59
45393;BMP280;31129;44.810;10.334;2024-03-25T13:23:54;77389.38;;;18.56
45393;BMP280;31129;44.810;10.334;2024-03-25T13:26:19;77405.84;;;18.66
45393;BMP280;31129;44.810;10.334;2024-03-25T13:28:45;77414.06;;;18.78
45393;BMP280;31129;44.810;10.334;2024-03-25T13:31:11;77423.94;;;18.87
45393;BMP280;31129;44.810;10.334;2024-03-25T13:33:37;77448.09;;;19.05
45393;BMP280;31129;44.810;10.334;2024-03-25T13:36:05;77448.09;;;19.12
45393;BMP280;31129;44.810;10.334;2024-03-25T13:38:32;77457.97;;;19.16
45393;BMP280;31129;44.810;10.334;2024-03-25T13:40:59;77438.75;;;18.96
45393;BMP280;31129;44.810;10.334;2024-03-25T13:43:24;77472.78;;;19.27
45393;BMP280;31129;44.810;10.334;2024-03-25T13:45:49;77462.34;;;19.20
45393;BMP280;31129;44.810;10.334;2024-03-25T13:48:15;77479.91;;;19.39
45393;BMP280;31129;44.810;10.334;2024-03-25T13:50:44;77501.34;;;19.56
45393;BMP280;31129;44.810;10.334;2024-03-25T13:53:13;77472.25;;;19.27
45393;BMP280;31129;44.810;10.334;2024-03-25T13:55:39;77449.19;;;19.08
45393;BMP280;31129;44.810;10.334;2024-03-25T13:58:07;77419.03;;;18.80